ADDS METAR Data INFO
IDs: Format: Raw Decoded Include TAF

Data at: 0754 UTC 23 Jul 2018

KDIK 230656Z AUTO 20003KT 10SM CLR 11/08 A3021 RMK AO2 SLP218 T01110083 402890106
KDIK 230556Z AUTO 00000KT 10SM CLR 12/08 A3020 RMK AO2 SLP217 T01170083 10261 20117 51016
KDIK 230456Z AUTO 32003KT 10SM CLR 17/09 A3019 RMK AO2 SLP211 T01670094
KDIK 230356Z AUTO 31004KT 10SM CLR 18/09 A3018 RMK AO2 SLP207 T01830094
KDIK 230256Z AUTO 00000KT 10SM CLR 17/09 A3015 RMK AO2 SLP199 T01720094 53008
KDIK 230156Z AUTO 35003KT 10SM CLR 23/09 A3013 RMK AO2 SLP187 T02330089
KDIK 230056Z AUTO 32005KT 10SM CLR 26/07 A3013 RMK AO2 SLP185 T02560067
KDIK 222356Z AUTO 34010KT 10SM CLR 27/07 A3013 RMK AO2 SLP186 T02670067 10289 20256 51012
KDIK 222256Z AUTO 36016G24KT 10SM CLR 27/07 A3012 RMK AO2 SLP184 T02720072
KDIK 222156Z AUTO 32014KT 10SM CLR 28/08 A3011 RMK AO2 SLP177 T02830078
KDIK 222056Z AUTO 32015G21KT 10SM FEW060 29/12 A3009 RMK AO2 SLP171 T02890122 51018
KDIK 221956Z AUTO 33018G24KT 10SM CLR 28/12 A3007 RMK AO2 PK WND 33027/1910 SLP166 T02830117
KDIK 221856Z AUTO 33015G22KT 10SM FEW043 28/15 A3006 RMK AO2 SLP160 T02780150
KDIK 221756Z AUTO 33013KT 10SM CLR 27/18 A3003 RMK AO2 SLP152 T02720178 10272 20172 53014
KDIK 221656Z AUTO 33012KT 10SM SCT024 24/18 A3002 RMK AO2 SLP149 T02440178
KDIK 221556Z AUTO 29010KT 10SM OVC021 23/18 A3000 RMK AO2 SLP146 T02280183
KDIK 221515Z AUTO 25011KT 10SM OVC015 22/18 A2999 RMK AO2 T02170178
KDIK 221456Z AUTO 22011KT 10SM BKN014 22/18 A2999 RMK AO2 SLP140 T02170178 53014
KDIK 221441Z AUTO 22011KT 10SM BKN012 22/18 A2998 RMK AO2 T02170178
KDIK 221356Z AUTO 19016KT 10SM CLR 21/17 A2995 RMK AO2 SLP124 T02110172
KDIK 221256Z AUTO 18018KT 10SM CLR 19/17 A2994 RMK AO2 SLP120 T01940167
KDIK 221156Z AUTO 17012KT 10SM CLR 17/16 A2994 RMK AO2 SLP123 70003 T01720156 10189 20172 53003
KDIK 221056Z AUTO 17016KT 10SM CLR 17/16 A2993 RMK AO2 SLP115 T01720156
KDIK 220956Z AUTO 15015G22KT 10SM CLR 18/16 A2994 RMK AO2 PK WND 17026/0907 SLP119 T01780156
KDIK 220856Z AUTO 16019KT 10SM CLR 18/16 A2993 RMK AO2 PK WND 14026/0841 SLP117 T01780156 58021
KDIK 220756Z AUTO 14017KT 10SM CLR 18/15 A2996 RMK AO2 SLP126 T01780150
KDIK 220656Z AUTO 14021G29KT 10SM CLR 18/16 A2999 RMK AO2 PK WND 14031/0605 SLP136 T01830156 403000122
KDIK 220556Z AUTO 13020G30KT 10SM CLR 18/16 A3000 RMK AO2 PK WND 13033/0528 SLP140 60003 T01830161 10261 20172 57018
KDIK 220456Z AUTO 12023G37KT 10SM CLR 19/16 A3000 RMK AO2 PK WND 12037/0448 LTG DSNT E SLP143 P0001 T01890161
KDIK 220356Z AUTO 09021G31KT 10SM SCT075 SCT100 17/17 A3005 RMK AO2 PK WND 07032/0345 WSHFT 0243 LTG DSNT E RAE01B22E52 SLP162 P0001 T01720167
KDIK 220352Z AUTO 08021G32KT 10SM SCT070 BKN090 18/17 A3006 RMK AO2 PK WND 07032/0345 WSHFT 0243 LTG DSNT E RAE01B22E52 P0001
KDIK 220337Z AUTO 07019G29KT 6SM VCTS -RA BR BKN085 OVC110 18/17 A3007 RMK AO2 PK WND 07029/0335 WSHFT 0243 LTG DSNT E RAE01B22 P0001 T01830172
KDIK 220303Z AUTO 07012KT 10SM FEW050 OVC075 19/16 A3005 RMK AO2 WSHFT 0243 LTG DSNT NE AND E RAE01 P0000 T01940161
KDIK 220256Z AUTO 08012KT 10SM -RA SCT048 OVC075 19/17 A3005 RMK AO2 PK WND 01035/0201 WSHFT 0238 LTG DSNT NE AND E SLP161 P0001 60001 T01890172 53021
KDIK 220247Z AUTO 05011KT 10SM -RA BKN046 OVC070 18/17 A3006 RMK AO2 PK WND 01035/0201 WSHFT 0155 LTG DSNT NE AND E P0001 T01830172
KDIK 220222Z AUTO 34015G26KT 10SM VCTS -RA FEW037 BKN045 OVC060 19/16 A3009 RMK AO2 PK WND 01035/0201 WSHFT 0155 LTG DSNT W-NE P0000 T01890161
KDIK 220215Z AUTO 35017G30KT 10SM -RA FEW032 BKN047 BKN060 19/16 A3007 RMK AO2 PK WND 01035/0201 WSHFT 0155 LTG DSNT W-NE P0000 T01940161
KDIK 220156Z AUTO 35013G17KT 10SM -RA FEW050 SCT070 BKN110 23/16 A3003 RMK AO2 LTG DSNT NW-NE RAB22 PRESRR SLP155 P0000 T02330161
KDIK 220145Z AUTO 14014KT 10SM -RA FEW050 SCT085 BKN110 23/16 A2996 RMK AO2 LTG DSNT W-NE RAB22 PRESRR P0000 T02330156
KDIK 220120Z AUTO 14013G23KT 10SM VCTS FEW055 25/16 A2994 RMK AO2 LTG DSNT ALQDS T02500156
KDIK 220056Z AUTO 12018G26KT 10SM FEW095 26/16 A2993 RMK AO2 PK WND 13026/0047 LTG DSNT ALQDS SLP121 T02560156
KDIK 212356Z AUTO 13015KT 10SM OVC070 26/16 A2998 RMK AO2 PK WND 14028/2318 SLP138 T02610156 10300 20261 55002
KDIK 212256Z AUTO 14019G27KT 10SM CLR 29/16 A2996 RMK AO2 PK WND 14028/2227 SLP130 T02890161
KDIK 212156Z AUTO 14019G28KT 10SM FEW080 29/16 A2997 RMK AO2 PK WND 13028/2120 SLP135 T02890156
KDIK 212056Z AUTO 13018G27KT 10SM CLR 30/16 A2998 RMK AO2 PK WND 12029/1959 SLP137 T03000161 56015
KDIK 211956Z AUTO 13020G28KT 10SM CLR 29/16 A2999 RMK AO2 PK WND 13028/1951 SLP140 T02890161